Asiatic Wave — 9V8790 — position and weather

sailwx.info

Track history (hours):
 
Tides and Currents Weather Stations Pressure Air Temp Water Temp Dewpoint Dewpoint Depression Visibility Wind Speed Wind Dir Waves Ship Positions

Asiatic Wave

Last reported at 2015-Apr-18 21:05 UTC. Time now 2015-Apr-19 14:09 UTC.
Position N 34°51' E 139°17'.

Length 150 m; draft 7 m.

Type: Ship (hazmat cat A). MMSI: 564211000.

Date/timePositionNaut miles runAvg speedWind from/ knotsBaromVisibWave heightAir tempDewpointWater temp
2015-Apr-18 21:05N 34°51' E 139°17'917.5
2015-Apr-18 20:33N 34°57' E 139°26'1818.0
2015-Apr-18 19:34N 35°07' E 139°44'1212.4
2015-Apr-18 18:33N 35°19' E 139°43'7 7.0
2015-Apr-18 17:31N 35°27' E 139°41'0 0.0
2015-Apr-18 16:31N 35°27' E 139°41'0 0.0
2015-Apr-18 15:31N 35°27' E 139°41'0 0.0
2015-Apr-18 14:33N 35°27' E 139°41'0 0.0
2015-Apr-18 13:31N 35°27' E 139°41'0 0.0
2015-Apr-18 12:31N 35°27' E 139°41'2 2.0
2015-Apr-18 11:33N 35°26' E 139°43'1010.0
2015-Apr-18 10:34N 35°34' E 139°51'4 3.5
2015-Apr-18 09:32N 35°36' E 139°48'0 0.0
2015-Apr-18 08:32N 35°36' E 139°48'0 0.0
2015-Apr-18 07:31N 35°36' E 139°48'0 0.1
2015-Apr-18 06:31N 35°36' E 139°48'0 0.0
2015-Apr-18 05:27N 35°36' E 139°48'0 0.0
2015-Apr-18 04:18N 35°36' E 139°48'0 0.0
2015-Apr-18 03:32N 35°36' E 139°48'0 0.1
2015-Apr-18 02:32N 35°36' E 139°48'0 0.0
2015-Apr-18 01:32N 35°36' E 139°48'0 0.0
2015-Apr-18 00:31N 35°36' E 139°48'0 0.0
2015-Apr-17 23:31N 35°36' E 139°48'0 0.3
2015-Apr-17 22:33N 35°36' E 139°47'6 5.7
2015-Apr-17 21:33N 35°31' E 139°52'9 8.8
2015-Apr-17 20:33N 35°24' E 139°46'9 9.0
2015-Apr-17 19:33N 35°15' E 139°47'1110.8
2015-Apr-17 18:33N 35°05' E 139°43'1110.9
2015-Apr-17 17:33N 34°58' E 139°33'  
2015-Apr-15 09:21N 31°04' E 124°06'1316.5
2015-Apr-15 08:33N 31°04' E 123°50'1716.7
2015-Apr-15 07:33N 31°04' E 123°31'1817.7
2015-Apr-15 06:33N 31°05' E 123°10'1918.7
2015-Apr-15 05:33N 31°05' E 122°48'1818.3
2015-Apr-15 04:33N 31°06' E 122°27'1414.0
2015-Apr-15 03:33N 31°10' E 122°11'1514.8
2015-Apr-15 02:33N 31°15' E 121°55'1313.0
2015-Apr-15 01:33N 31°20' E 121°41'1 0.9
2015-Apr-15 00:34N 31°20' E 121°40'0 0.0
2015-Apr-14 23:32N 31°20' E 121°40'0 0.0
2015-Apr-14 22:29N 31°20' E 121°40'0 0.0
2015-Apr-14 21:33N 31°20' E 121°40'0 0.0
2015-Apr-14 20:33N 31°20' E 121°40'0 0.0
2015-Apr-14 19:32N 31°20' E 121°40'0 0.0
2015-Apr-14 18:33N 31°20' E 121°40'0 0.0
2015-Apr-14 17:31N 31°20' E 121°40'0 0.0
2015-Apr-14 16:31N 31°20' E 121°40'0 0.0
2015-Apr-14 15:30N 31°20' E 121°40'0 0.0
2015-Apr-14 14:33N 31°20' E 121°40'0 0.0
2015-Apr-14 13:33N 31°20' E 121°40'0 0.1
2015-Apr-14 12:33N 31°20' E 121°40'1 0.6
2015-Apr-14 11:33N 31°20' E 121°40'7 7.2
2015-Apr-14 10:33N 31°18' E 121°47'1111.2
2015-Apr-14 09:34N 31°15' E 122°00'1110.6
2015-Apr-14 08:34N 31°10' E 122°11'8 8.3
2015-Apr-14 07:34N 31°06' E 122°20'9 9.1
2015-Apr-14 06:33N 31°06' E 122°30'  
2015-Apr-12 00:31N 34°07' E 138°03'7617.6
2015-Apr-11 20:11N 34°52' E 139°18'1117.7
2015-Apr-11 19:33N 34°59' E 139°29'1716.8
2015-Apr-11 18:33N 35°09' E 139°45'1211.8
2015-Apr-11 17:33N 35°21' E 139°42'6 5.5
2015-Apr-11 16:32N 35°27' E 139°41'0 0.0
2015-Apr-11 15:31N 35°27' E 139°41'0 0.0
2015-Apr-11 14:31N 35°27' E 139°41'0 0.1
2015-Apr-11 13:34N 35°27' E 139°41'0 0.0
2015-Apr-11 12:33N 35°27' E 139°41'1 0.7
2015-Apr-11 11:33N 35°27' E 139°41'8 8.2
2015-Apr-11 10:34N 35°30' E 139°51'7 6.5
2015-Apr-11 09:31N 35°36' E 139°48'0 0.0
2015-Apr-11 07:24N 35°36' E 139°48'0 0.0
2015-Apr-11 06:29N 35°36' E 139°48'0 0.0
2015-Apr-11 05:32N 35°36' E 139°48'0 0.0
2015-Apr-11 04:31N 35°36' E 139°48'0 0.0
2015-Apr-11 03:31N 35°36' E 139°48'0 0.0
2015-Apr-11 02:29N 35°36' E 139°48'0 0.0
2015-Apr-11 01:32N 35°36' E 139°48'0 0.0
2015-Apr-11 00:32N 35°36' E 139°48'0 0.0
2015-Apr-10 23:25N 35°36' E 139°48'0 0.4
2015-Apr-10 22:33N 35°36' E 139°47'5 5.5
2015-Apr-10 21:33N 35°32' E 139°52'6 6.3
2015-Apr-10 20:34N 35°26' E 139°49'8 7.8
2015-Apr-10 19:33N 35°20' E 139°44'8 8.2
2015-Apr-10 18:33N 35°12' E 139°47'10 9.7
2015-Apr-10 17:34N 35°03' E 139°41'1010.4
2015-Apr-10 16:33N 34°57' E 139°31'  
Track history (hours):
 
Tides and Currents Weather Stations Pressure Air Temp Water Temp Dewpoint Dewpoint Depression Visibility Wind Speed Wind Dir Waves Ship Positions

Asiatic Wave

Last reported at 2015-Apr-18 21:05 UTC. Time now 2015-Apr-19 14:09 UTC.
Position N 34°51' E 139°17'.

Length 150 m; draft 7 m.

Type: Ship (hazmat cat A). MMSI: 564211000.

Date/timePositionNaut miles runAvg speedWind from/ knotsBaromVisibWave heightAir tempDewpointWater temp
2015-Apr-18 21:05N 34°51' E 139°17'917.5
2015-Apr-18 20:33N 34°57' E 139°26'1818.0
2015-Apr-18 19:34N 35°07' E 139°44'1212.4
2015-Apr-18 18:33N 35°19' E 139°43'7 7.0
2015-Apr-18 17:31N 35°27' E 139°41'0 0.0
2015-Apr-18 16:31N 35°27' E 139°41'0 0.0
2015-Apr-18 15:31N 35°27' E 139°41'0 0.0
2015-Apr-18 14:33N 35°27' E 139°41'0 0.0
2015-Apr-18 13:31N 35°27' E 139°41'0 0.0
2015-Apr-18 12:31N 35°27' E 139°41'2 2.0
2015-Apr-18 11:33N 35°26' E 139°43'1010.0
2015-Apr-18 10:34N 35°34' E 139°51'4 3.5
2015-Apr-18 09:32N 35°36' E 139°48'0 0.0
2015-Apr-18 08:32N 35°36' E 139°48'0 0.0
2015-Apr-18 07:31N 35°36' E 139°48'0 0.1
2015-Apr-18 06:31N 35°36' E 139°48'0 0.0
2015-Apr-18 05:27N 35°36' E 139°48'0 0.0
2015-Apr-18 04:18N 35°36' E 139°48'0 0.0
2015-Apr-18 03:32N 35°36' E 139°48'0 0.1
2015-Apr-18 02:32N 35°36' E 139°48'0 0.0
2015-Apr-18 01:32N 35°36' E 139°48'0 0.0
2015-Apr-18 00:31N 35°36' E 139°48'0 0.0
2015-Apr-17 23:31N 35°36' E 139°48'0 0.3
2015-Apr-17 22:33N 35°36' E 139°47'6 5.7
2015-Apr-17 21:33N 35°31' E 139°52'9 8.8
2015-Apr-17 20:33N 35°24' E 139°46'9 9.0
2015-Apr-17 19:33N 35°15' E 139°47'1110.8
2015-Apr-17 18:33N 35°05' E 139°43'1110.9
2015-Apr-17 17:33N 34°58' E 139°33'  
2015-Apr-15 09:21N 31°04' E 124°06'1316.5
2015-Apr-15 08:33N 31°04' E 123°50'1716.7
2015-Apr-15 07:33N 31°04' E 123°31'1817.7
2015-Apr-15 06:33N 31°05' E 123°10'1918.7
2015-Apr-15 05:33N 31°05' E 122°48'1818.3
2015-Apr-15 04:33N 31°06' E 122°27'1414.0
2015-Apr-15 03:33N 31°10' E 122°11'1514.8
2015-Apr-15 02:33N 31°15' E 121°55'1313.0
2015-Apr-15 01:33N 31°20' E 121°41'1 0.9
2015-Apr-15 00:34N 31°20' E 121°40'0 0.0
2015-Apr-14 23:32N 31°20' E 121°40'0 0.0
2015-Apr-14 22:29N 31°20' E 121°40'0 0.0
2015-Apr-14 21:33N 31°20' E 121°40'0 0.0
2015-Apr-14 20:33N 31°20' E 121°40'0 0.0
2015-Apr-14 19:32N 31°20' E 121°40'0 0.0
2015-Apr-14 18:33N 31°20' E 121°40'0 0.0
2015-Apr-14 17:31N 31°20' E 121°40'0 0.0
2015-Apr-14 16:31N 31°20' E 121°40'0 0.0
2015-Apr-14 15:30N 31°20' E 121°40'0 0.0
2015-Apr-14 14:33N 31°20' E 121°40'0 0.0
2015-Apr-14 13:33N 31°20' E 121°40'0 0.1
2015-Apr-14 12:33N 31°20' E 121°40'1 0.6
2015-Apr-14 11:33N 31°20' E 121°40'7 7.2
2015-Apr-14 10:33N 31°18' E 121°47'1111.2
2015-Apr-14 09:34N 31°15' E 122°00'1110.6
2015-Apr-14 08:34N 31°10' E 122°11'8 8.3
2015-Apr-14 07:34N 31°06' E 122°20'9 9.1
2015-Apr-14 06:33N 31°06' E 122°30'  
2015-Apr-12 00:31N 34°07' E 138°03'7617.6
2015-Apr-11 20:11N 34°52' E 139°18'1117.7
2015-Apr-11 19:33N 34°59' E 139°29'1716.8
2015-Apr-11 18:33N 35°09' E 139°45'1211.8
2015-Apr-11 17:33N 35°21' E 139°42'6 5.5
2015-Apr-11 16:32N 35°27' E 139°41'0 0.0
2015-Apr-11 15:31N 35°27' E 139°41'0 0.0
2015-Apr-11 14:31N 35°27' E 139°41'0 0.1
2015-Apr-11 13:34N 35°27' E 139°41'0 0.0
2015-Apr-11 12:33N 35°27' E 139°41'1 0.7
2015-Apr-11 11:33N 35°27' E 139°41'8 8.2
2015-Apr-11 10:34N 35°30' E 139°51'7 6.5
2015-Apr-11 09:31N 35°36' E 139°48'0 0.0
2015-Apr-11 07:24N 35°36' E 139°48'0 0.0
2015-Apr-11 06:29N 35°36' E 139°48'0 0.0
2015-Apr-11 05:32N 35°36' E 139°48'0 0.0
2015-Apr-11 04:31N 35°36' E 139°48'0 0.0
2015-Apr-11 03:31N 35°36' E 139°48'0 0.0
2015-Apr-11 02:29N 35°36' E 139°48'0 0.0
2015-Apr-11 01:32N 35°36' E 139°48'0 0.0
2015-Apr-11 00:32N 35°36' E 139°48'0 0.0
2015-Apr-10 23:25N 35°36' E 139°48'0 0.4
2015-Apr-10 22:33N 35°36' E 139°47'5 5.5
2015-Apr-10 21:33N 35°32' E 139°52'6 6.3
2015-Apr-10 20:34N 35°26' E 139°49'8 7.8
2015-Apr-10 19:33N 35°20' E 139°44'8 8.2
2015-Apr-10 18:33N 35°12' E 139°47'10 9.7
2015-Apr-10 17:34N 35°03' E 139°41'1010.4
2015-Apr-10 16:33N 34°57' E 139°31'  

Dump ship's entire track history